Hauptseite
METAR-TAF:

METAR-TAF

Flughäfen :

N’Djamena, Tschad

Flughafen N’Djamena

Breite: 12-08N, Länge: 015-02E, Höhe: 295 m

Beobachtung

Neuester Wetterbericht von vor 1 Stunde und 13 Minuten, um 04:00 UTC
Wind 11 kt aus Ost/Nordost
Temperatur 26°C
Luftfeuchtigkeit 16%
Luftdruck 1010 hPa
Sichtweite 10 km oder mehr
keine Wolken unter 1500 m und keine Kumulonimbus oder Gewitterwolken

METAR: FTTJ 260400Z 06011KT CAVOK 26/M02 Q1010 NOSIG

Zeit: 06:13 (05:13 UTC)

Prognose

Neuester Wetterbericht von vor 6 Stunden und 13 Minuten, um 23:00 UTC
Gültige Prognose vom 26 um 00 UTC bis 27 um 06 UTC
Wind 12 kt aus Ost/Nordost
Sichtweite 10 km oder mehr
keine Wolken unter 1500 m und keine Kumulonimbus oder Gewitterwolken
Übergehend zu
vom 26 um 18 UTC bis 26 um 20 UTC
Sichtweite: 2000 m
verbreitet Staub

TAF: FTTJ 252300Z 2600/2706 06012KT CAVOK BECMG 2618/2620 2000 DU

Wetterbeobachtungen und Prognosen von mehr als 4000 Flughäfen (METAR und TAF Bericht).

Die verfügbaren Stationen werden durch gelbe und rote Markierungen auf der Karte dargestellt.

Führen Sie die Maus auf sie, um den Namen der Station zu sehen.

Darauf klicken, um die Beobachtung von Wetterbeobachtungen und Prognosen zu sehen.

Um die Karte zu ändern : klicken Sie auf den grünen Tasten mit einem schwarzen Kreuz Zum Vergrößern, auf den grünen Button mit einem Gedankenstrich zu verkleinern, oder auf die grünen Pfeile für benachbarte Karten.


METAR-TAF: